Salford, Pennsylvania
Current Conditions -  °F | °C
As of 9:54 PM on Monday 22 Dec 2014 (Local Time) from KPTW Reporting Station
Haze Haze  
Wind Chill: 36°   Ceiling: 600
Heat Index: 39°   Visibility: 5mi
Dew Point: 38°   Wind: 5mph
Humidity: 96%   Direction: 50°NE
Pressure: 30.16"   Gusts: NA
Location:  40.3°N, 75.45°W
Report Text: KPTW 230254Z AUTO 05004KT 5SM BR BKN006 OVC037 04/03 A3016 RMK AO2 RAE03B19E54 SLP213 P0000 60001 T00390033 58011
Loading
Personal Weather Stations






























Interactive Weather Map New forecast layout! Learn more

10-Day Weather Forecast

Advertisements
Track Severe Weather on mobile